Home   Weather   Melbourne Bluff   Past weeks
Flag for Australia

Past Weather in Melbourne Bluff, Heard and McDonald Islands, Australia — Yesterday and Last 2 Weeks

Currently: 72 °F. Passing clouds. (Weather station: Belmont Perth Airport, Australia). See more current weather

Past Weather in Melbourne Bluff — Graph

°F

Melbourne Bluff Temperature Yesterday

Maximum temperature yesterday: 97 °F (at 9:30 am)
Minimum temperature yesterday: 64 °F (at 10:30 pm)
Average temperature yesterday: 79 °F

High & Low Weather Summary for the Past Weeks

 TemperatureHumidityPressure
High99 °F (Jan 9, 7:00 am)83% (Jan 9, 8:23 pm)30.07 "Hg (Jan 9, 8:23 pm)
Low61 °F (Jan 11, 1:30 am)12% (Jan 17, 2:00 pm)29.50 "Hg (Jan 23, 1:00 am)
Average79 °F43%29.87 "Hg
* Reported Jan 8 5:00 pm — Jan 23 5:30 pm, Melbourne Bluff. Weather by CustomWeather, © 2021

Note: Actual official high and low records may vary slightly from our data, if they occured in-between our weather recording intervals... More about our weather records

Melbourne Bluff Weather History for the Previous 24 Hours

Scroll right to see more
 ConditionsComfort  
Time TempWeatherWind HumidityBarometerVisibility
5:30 pm
Sat, Jan 23
72 °FPassing clouds.13 mph65%29.68 "HgN/A
5:00 pm72 °FPassing clouds.13 mph65%29.68 "HgN/A
4:30 pm72 °FPassing clouds.15 mph65%29.65 "HgN/A
4:00 pm72 °FPartly sunny.14 mph69%29.65 "HgN/A
3:30 pm73 °FPartly sunny.15 mph65%29.65 "HgN/A
3:00 pm75 °FPassing clouds.17 mph61%29.62 "HgN/A
2:30 pm77 °FPassing clouds.16 mph57%29.59 "HgN/A
2:00 pm77 °FPassing clouds.15 mph57%29.59 "HgN/A
1:30 pm79 °FPassing clouds.15 mph54%29.59 "HgN/A
1:00 pm79 °FPassing clouds.16 mph54%29.59 "HgN/A
12:30 pm79 °FPassing clouds.16 mph54%29.59 "HgN/A
12:00 pm79 °FPassing clouds.16 mph54%29.59 "HgN/A
11:30 am79 °FPassing clouds.15 mph54%29.59 "HgN/A
11:00 am81 °FPassing clouds.17 mph51%29.59 "HgN/A
10:30 am81 °FPassing clouds.13 mph54%29.59 "HgN/A
10:00 am81 °FPassing clouds.16 mph54%29.59 "HgN/A
9:30 am81 °FPassing clouds.15 mph54%29.59 "HgN/A
9:00 am82 °FPassing clouds.16 mph55%29.59 "HgN/A
8:30 am81 °FPassing clouds.16 mph54%29.59 "HgN/A
8:00 am81 °FPassing clouds.16 mph58%29.59 "HgN/A
7:30 am79 °FPassing clouds.14 mph61%29.59 "HgN/A
7:00 am81 °FSunny.14 mph51%29.59 "Hg10 mi
6:30 am81 °FSunny.13 mph58%29.59 "Hg10 mi
6:00 am81 °FSunny.1 mph54%29.56 "Hg10 mi
5:30 am79 °FPassing clouds.7 mph54%29.56 "HgN/A
5:00 am77 °FSunny.8 mph51%29.56 "Hg10 mi
4:30 am77 °FSunny.3 mph51%29.56 "Hg10 mi
4:00 am73 °FSunny.3 mph57%29.56 "Hg10 mi
3:30 am72 °FSunny.7 mph61%29.56 "Hg10 mi
3:00 am66 °FSunny.No wind73%29.56 "Hg10 mi
2:30 am68 °FClear.6 mph69%29.53 "Hg10 mi
2:00 am72 °FClear.10 mph61%29.53 "Hg10 mi
1:30 am70 °FClear.7 mph60%29.53 "Hg10 mi
1:00 am64 °FClear.7 mph73%29.50 "Hg10 mi
12:30 am63 °FClear.5 mph77%29.53 "Hg10 mi
12:00 am63 °FClear.6 mph77%29.53 "Hg10 mi
11:30 pm
Fri, Jan 22
64 °FClear.5 mph73%29.53 "Hg10 mi
11:00 pm66 °FClear.7 mph73%29.53 "Hg10 mi
10:30 pm64 °FClear.No wind73%29.53 "Hg10 mi
10:00 pm66 °FClear.5 mph68%29.53 "Hg10 mi
9:30 pm68 °FPassing clouds.5 mph69%29.53 "HgN/A
9:00 pm72 °FClear.8 mph61%29.56 "Hg10 mi
8:30 pm72 °FClear.8 mph65%29.56 "Hg10 mi
8:00 pm73 °FClear.10 mph61%29.56 "Hg10 mi
7:30 pm73 °FClear.7 mph57%29.59 "Hg10 mi
7:00 pm75 °FClear.8 mph54%29.56 "Hg10 mi
6:30 pm77 °FClear.8 mph54%29.59 "Hg10 mi
6:00 pm77 °FClear.9 mph51%29.59 "Hg10 mi
Weather by CustomWeather, © 2021

See weather overview